Time,TemperatureF,DewpointF,PressureIn,WindDirection,WindDirectionDegrees,WindSpeedMPH,WindSpeedGustMPH,Humidity,HourlyPrecipIn,Conditions,Clouds,dailyrainin,SolarRadiationWatts/m^2,SoftwareType,DateUTC
2013-04-12 00:00:00,63.6,57.3,29.52,NE,38,0.0,3.0,80,0.00,,---,0.01,0.00,VWS V14.00,2013-04-12 04:00:00,
2013-04-12 00:05:00,63.4,57.1,29.52,NE,38,0.0,2.0,80,0.00,,---,0.00,0.00,VWS V14.00,2013-04-12 04:05:00,
2013-04-12 00:10:00,63.2,56.9,29.52,NE,38,0.0,3.0,80,0.00,,---,0.00,0.00,VWS V14.00,2013-04-12 04:10:00,
2013-04-12 00:15:00,63.1,56.8,29.52,NE,38,0.0,3.0,80,0.00,,---,0.00,0.00,VWS V14.00,2013-04-12 04:15:00,
2013-04-12 00:20:00,63.2,57.3,29.52,NE,37,1.0,5.0,81,0.00,,---,0.00,0.00,VWS V14.00,2013-04-12 04:20:00,
2013-04-12 00:25:00,63.0,57.1,29.52,NE,37,0.0,5.0,81,0.00,,---,0.00,0.00,VWS V14.00,2013-04-12 04:25:00,
2013-04-12 00:30:00,62.7,56.8,29.52,NE,37,0.0,5.0,81,0.00,,---,0.00,0.00,VWS V14.00,2013-04-12 04:30:00,
2013-04-12 00:35:00,62.5,56.9,29.51,NE,37,1.0,4.0,82,0.00,,---,0.00,0.00,VWS V14.00,2013-04-12 04:35:00,
2013-04-12 00:40:00,62.5,56.9,29.51,NE,37,0.0,4.0,82,0.00,,---,0.00,0.00,VWS V14.00,2013-04-12 04:40:00,
2013-04-12 00:45:00,62.5,56.9,29.52,NE,37,0.0,4.0,82,0.00,,---,0.00,0.00,VWS V14.00,2013-04-12 04:45:00,
2013-04-12 00:50:00,62.3,56.7,29.51,NE,37,0.0,4.0,82,0.00,,---,0.00,0.00,VWS V14.00,2013-04-12 04:50:00,
2013-04-12 00:55:00,62.2,56.6,29.51,NE,37,0.0,4.0,82,0.00,,---,0.00,0.00,VWS V14.00,2013-04-12 04:55:00,
2013-04-12 01:00:00,62.5,56.9,29.51,North,11,1.0,4.0,82,0.00,,---,0.00,0.00,VWS V14.00,2013-04-12 05:00:00,
2013-04-12 01:05:00,62.9,56.6,29.51,SE,144,0.0,5.0,80,0.00,,---,0.00,0.00,VWS V14.00,2013-04-12 05:05:00,
2013-04-12 01:10:00,63.3,56.7,29.51,SE,144,0.0,5.0,79,0.00,,---,0.00,0.00,VWS V14.00,2013-04-12 05:10:00,
2013-04-12 01:15:00,63.7,56.4,29.50,SE,140,0.0,5.0,77,0.00,,---,0.00,0.00,VWS V14.00,2013-04-12 05:15:00,
2013-04-12 01:20:00,64.9,56.0,29.50,SE,139,5.0,9.0,73,0.00,,---,0.00,0.00,VWS V14.00,2013-04-12 05:20:00,
2013-04-12 01:25:00,66.5,56.8,29.50,NNE,15,0.0,9.0,71,0.00,,---,0.00,0.00,VWS V14.00,2013-04-12 05:25:00,
2013-04-12 01:30:00,67.4,56.1,29.50,West,259,0.0,10.0,67,0.00,,---,0.00,0.00,VWS V14.00,2013-04-12 05:30:00,
2013-04-12 01:35:00,68.4,56.2,29.50,SE,146,0.0,5.0,65,0.00,,---,0.00,0.00,VWS V14.00,2013-04-12 05:35:00,
2013-04-12 01:40:00,69.1,56.4,29.50,SW,215,4.0,6.0,64,0.00,,---,0.00,0.00,VWS V14.00,2013-04-12 05:40:00,
2013-04-12 01:46:00,69.6,56.0,29.50,SSW,194,2.0,6.0,62,0.00,,---,0.00,0.00,VWS V14.00,2013-04-12 05:46:00,
2013-04-12 01:51:00,70.3,56.2,29.50,SSW,193,3.0,9.0,61,0.00,,---,0.00,0.00,VWS V14.00,2013-04-12 05:51:00,
2013-04-12 01:56:00,70.9,55.9,29.49,SSE,164,0.0,9.0,59,0.00,,---,0.00,0.00,VWS V14.00,2013-04-12 05:56:00,
2013-04-12 02:00:00,71.3,55.8,29.49,SSE,159,1.0,9.0,58,0.00,,---,0.00,0.00,VWS V14.00,2013-04-12 06:00:00,
2013-04-12 02:01:00,71.3,55.8,29.49,SSW,204,3.0,9.0,58,0.00,,---,0.00,0.00,VWS V14.00,2013-04-12 06:01:00,
2013-04-12 02:06:00,71.5,56.0,29.49,South,186,0.0,5.0,58,0.00,,---,0.00,0.00,VWS V14.00,2013-04-12 06:06:00,
2013-04-12 02:11:00,71.6,56.1,29.49,SE,142,2.0,7.0,58,0.00,,---,0.00,0.00,VWS V14.00,2013-04-12 06:11:00,
2013-04-12 02:16:00,71.8,55.8,29.49,SSW,195,2.0,9.0,57,0.00,,---,0.00,0.00,VWS V14.00,2013-04-12 06:16:00,
2013-04-12 02:21:00,71.8,55.8,29.49,SSE,161,1.0,9.0,57,0.00,,---,0.00,0.00,VWS V14.00,2013-04-12 06:21:00,
2013-04-12 02:26:00,71.9,55.9,29.48,South,184,1.0,9.0,57,0.00,,---,0.00,0.00,VWS V14.00,2013-04-12 06:26:00,
2013-04-12 02:30:00,71.8,55.8,29.48,West,266,3.0,9.0,57,0.00,,---,0.00,0.00,VWS V14.00,2013-04-12 06:30:00,
2013-04-12 02:31:00,71.8,55.8,29.48,SE,128,4.0,9.0,57,0.00,,---,0.00,0.00,VWS V14.00,2013-04-12 06:31:00,
2013-04-12 02:36:00,71.8,56.2,29.48,SSE,167,0.0,6.0,58,0.00,,---,0.00,0.00,VWS V14.00,2013-04-12 06:36:00,
2013-04-12 02:41:00,71.7,56.2,29.49,South,175,1.0,6.0,58,0.00,,---,0.00,0.00,VWS V14.00,2013-04-12 06:41:00,
2013-04-12 02:46:00,71.5,56.4,29.49,South,182,0.0,6.0,59,0.00,,---,0.00,0.00,VWS V14.00,2013-04-12 06:46:00,
2013-04-12 02:51:00,71.3,56.7,29.49,SSE,149,0.0,6.0,60,0.00,,---,0.00,0.00,VWS V14.00,2013-04-12 06:51:00,
2013-04-12 02:56:00,70.9,56.8,29.49,ESE,104,0.0,6.0,61,0.00,,---,0.00,0.00,VWS V14.00,2013-04-12 06:56:00,
2013-04-12 03:00:00,70.6,57.4,29.49,SE,145,0.0,6.0,63,0.00,,---,0.00,0.00,VWS V14.00,2013-04-12 07:00:00,
2013-04-12 03:02:00,70.6,57.8,29.49,SE,145,0.0,0.0,64,0.00,,---,0.00,0.00,VWS V14.00,2013-04-12 07:02:00,
2013-04-12 03:07:00,70.1,59.1,29.50,SE,146,0.0,2.0,68,0.00,,---,0.01,0.00,VWS V14.00,2013-04-12 07:07:00,
2013-04-12 03:12:00,69.3,59.5,29.50,SE,146,0.0,2.0,71,0.18,,---,0.04,0.00,VWS V14.00,2013-04-12 07:12:00,
2013-04-12 03:17:00,68.1,59.5,29.50,South,188,6.0,6.0,74,0.36,,---,0.06,0.00,VWS V14.00,2013-04-12 07:17:00,
2013-04-12 03:22:00,66.7,59.6,29.50,SSW,210,0.0,7.0,78,0.27,,---,0.08,0.00,VWS V14.00,2013-04-12 07:22:00,
2013-04-12 03:27:00,65.4,59.8,29.49,SW,235,0.0,7.0,82,0.27,,---,0.10,0.00,VWS V14.00,2013-04-12 07:27:00,
2013-04-12 03:30:00,64.6,59.7,29.50,WSW,256,2.0,7.0,84,0.11,,---,0.11,0.00,VWS V14.00,2013-04-12 07:30:00,
2013-04-12 03:32:00,64.5,59.9,29.50,West,268,4.0,6.0,85,0.11,,---,0.11,0.00,VWS V14.00,2013-04-12 07:32:00,
2013-04-12 03:37:00,63.6,59.7,29.50,WSW,241,1.0,6.0,87,0.16,,---,0.13,0.00,VWS V14.00,2013-04-12 07:37:00,
2013-04-12 03:42:00,63.1,59.8,29.50,WSW,244,3.0,6.0,89,0.21,,---,0.15,0.00,VWS V14.00,2013-04-12 07:42:00,
2013-04-12 03:47:00,62.6,60.2,29.50,WSW,251,0.0,6.0,92,0.19,,---,0.16,0.00,VWS V14.00,2013-04-12 07:47:00,
2013-04-12 03:52:00,62.3,59.6,29.50,WSW,252,2.0,6.0,91,0.32,,---,0.19,0.00,VWS V14.00,2013-04-12 07:52:00,
2013-04-12 03:57:00,62.0,59.7,29.50,WSW,251,0.0,6.0,92,0.17,,---,0.21,0.00,VWS V14.00,2013-04-12 07:57:00,
2013-04-12 04:00:00,61.8,59.5,29.49,WSW,252,0.0,6.0,92,0.26,,---,0.23,0.00,VWS V14.00,2013-04-12 08:00:00,
2013-04-12 04:02:00,61.8,59.8,29.50,WSW,252,1.0,1.0,93,0.26,,---,0.24,0.00,VWS V14.00,2013-04-12 08:02:00,
2013-04-12 04:07:00,61.7,59.7,29.49,WSW,251,0.0,1.0,93,0.14,,---,0.26,0.00,VWS V14.00,2013-04-12 08:07:00,
2013-04-12 04:12:00,61.5,59.8,29.48,SE,126,2.0,2.0,94,0.19,,---,0.27,0.00,VWS V14.00,2013-04-12 08:12:00,
2013-04-12 04:17:00,61.4,59.7,29.48,SE,126,0.0,2.0,94,0.16,,---,0.28,0.00,VWS V14.00,2013-04-12 08:17:00,
2013-04-12 04:22:00,61.3,59.6,29.47,SE,138,0.0,5.0,94,0.07,,---,0.28,0.00,VWS V14.00,2013-04-12 08:22:00,
2013-04-12 04:27:00,61.2,59.8,29.48,SE,138,0.0,5.0,95,0.07,,---,0.29,0.00,VWS V14.00,2013-04-12 08:27:00,
2013-04-12 04:30:00,61.2,59.8,29.48,SE,138,0.0,5.0,95,0.09,,---,0.30,0.00,VWS V14.00,2013-04-12 08:30:00,
2013-04-12 04:32:00,61.2,59.8,29.49,SE,138,0.0,0.0,95,0.09,,---,0.30,0.00,VWS V14.00,2013-04-12 08:32:00,
2013-04-12 04:37:00,61.1,59.7,29.49,SE,138,1.0,2.0,95,0.08,,---,0.30,0.00,VWS V14.00,2013-04-12 08:37:00,
2013-04-12 04:42:00,60.9,59.5,29.49,SE,140,0.0,2.0,95,0.05,,---,0.30,0.00,VWS V14.00,2013-04-12 08:42:00,
2013-04-12 04:47:00,60.9,59.5,29.49,SE,140,0.0,2.0,95,0.04,,---,0.31,0.00,VWS V14.00,2013-04-12 08:47:00,
2013-04-12 04:52:00,60.9,59.5,29.49,SE,140,0.0,2.0,95,0.10,,---,0.32,0.00,VWS V14.00,2013-04-12 08:52:00,
2013-04-12 04:57:00,60.8,59.4,29.50,SE,140,0.0,2.0,95,0.09,,---,0.32,0.00,VWS V14.00,2013-04-12 08:57:00,
2013-04-12 05:00:00,60.8,59.7,29.50,SE,140,0.0,2.0,96,0.06,,---,0.32,0.00,VWS V14.00,2013-04-12 09:00:00,
2013-04-12 05:02:00,60.8,59.7,29.50,SE,140,0.0,0.0,96,0.05,,---,0.32,0.00,VWS V14.00,2013-04-12 09:02:00,
2013-04-12 05:07:00,60.8,59.7,29.51,SE,140,0.0,0.0,96,0.05,,---,0.33,0.00,VWS V14.00,2013-04-12 09:07:00,
2013-04-12 05:12:00,60.8,59.7,29.51,ESE,105,1.0,4.0,96,0.11,,---,0.34,0.00,VWS V14.00,2013-04-12 09:12:00,
2013-04-12 05:17:00,60.8,59.7,29.51,SSE,164,0.0,4.0,96,0.07,,---,0.34,0.00,VWS V14.00,2013-04-12 09:17:00,
2013-04-12 05:22:00,60.9,59.8,29.51,ESE,121,0.0,4.0,96,0.04,,---,0.34,0.00,VWS V14.00,2013-04-12 09:22:00,
2013-04-12 05:27:00,60.9,59.8,29.51,SW,215,0.0,5.0,96,0.04,,---,0.35,0.00,VWS V14.00,2013-04-12 09:27:00,
2013-04-12 05:30:00,61.0,59.9,29.50,SSW,204,0.0,8.0,96,0.04,,---,0.35,0.00,VWS V14.00,2013-04-12 09:30:00,
2013-04-12 05:32:00,61.0,59.9,29.51,SSW,198,1.0,2.0,96,0.04,,---,0.36,0.00,VWS V14.00,2013-04-12 09:32:00,
2013-04-12 05:37:00,61.1,60.0,29.50,SE,134,0.0,4.0,96,0.08,,---,0.36,0.00,VWS V14.00,2013-04-12 09:37:00,
2013-04-12 05:43:00,61.0,59.9,29.50,SSE,166,2.0,6.0,96,0.06,,---,0.36,0.00,VWS V14.00,2013-04-12 09:43:00,
2013-04-12 05:48:00,61.0,59.9,29.50,SE,129,0.0,6.0,96,0.04,,---,0.36,0.00,VWS V14.00,2013-04-12 09:48:00,
2013-04-12 05:53:00,61.0,59.9,29.50,South,186,0.0,7.0,96,0.04,,---,0.37,0.00,VWS V14.00,2013-04-12 09:53:00,
2013-04-12 05:58:00,61.0,59.9,29.50,South,175,5.0,7.0,96,0.10,,---,0.38,0.00,VWS V14.00,2013-04-12 09:58:00,
2013-04-12 06:00:00,61.0,59.6,29.49,ENE,73,3.0,7.0,95,0.11,,---,0.39,0.00,VWS V14.00,2013-04-12 10:00:00,
2013-04-12 06:03:00,61.0,59.6,29.49,SSE,159,5.0,6.0,95,0.11,,---,0.39,0.00,VWS V14.00,2013-04-12 10:03:00,
2013-04-12 06:08:00,60.9,59.5,29.48,South,172,0.0,6.0,95,0.14,,---,0.40,0.00,VWS V14.00,2013-04-12 10:08:00,
2013-04-12 06:13:00,60.9,59.5,29.48,SE,144,0.0,7.0,95,0.06,,---,0.40,0.00,VWS V14.00,2013-04-12 10:13:00,
2013-04-12 06:18:00,60.8,59.4,29.47,South,180,6.0,7.0,95,0.05,,---,0.41,0.00,VWS V14.00,2013-04-12 10:18:00,
2013-04-12 06:23:00,60.8,59.4,29.47,SW,231,2.0,7.0,95,0.05,,---,0.41,0.00,VWS V14.00,2013-04-12 10:23:00,
2013-04-12 06:28:00,60.7,59.0,29.47,SSW,196,0.0,7.0,94,0.05,,---,0.41,0.00,VWS V14.00,2013-04-12 10:28:00,
2013-04-12 06:30:00,60.7,59.0,29.46,SE,134,0.0,7.0,94,0.04,,---,0.41,0.00,VWS V14.00,2013-04-12 10:30:00,
2013-04-12 06:33:00,60.7,59.0,29.46,South,179,2.0,2.0,94,0.00,,---,0.41,0.00,VWS V14.00,2013-04-12 10:33:00,
2013-04-12 06:38:00,60.6,58.9,29.46,SSW,209,4.0,6.0,94,0.00,,---,0.42,0.00,VWS V14.00,2013-04-12 10:38:00,
2013-04-12 06:43:00,60.5,58.8,29.45,ESE,118,0.0,6.0,94,0.00,,---,0.42,0.00,VWS V14.00,2013-04-12 10:43:00,
2013-04-12 06:48:00,60.4,58.7,29.46,SSE,162,0.0,7.0,94,0.00,,---,0.42,0.00,VWS V14.00,2013-04-12 10:48:00,
2013-04-12 06:53:00,60.4,58.7,29.46,South,174,0.0,7.0,94,0.00,,---,0.42,0.00,VWS V14.00,2013-04-12 10:53:00,
2013-04-12 06:58:00,60.3,58.6,29.46,SSW,204,3.0,7.0,94,0.00,,---,0.42,0.00,VWS V14.00,2013-04-12 10:58:00,
2013-04-12 07:00:00,60.3,58.6,29.47,SSE,148,0.0,7.0,94,0.00,,---,0.42,0.00,VWS V14.00,2013-04-12 11:00:00,
2013-04-12 07:03:00,60.3,58.6,29.47,ESE,117,0.0,4.0,94,0.00,,---,0.42,0.00,VWS V14.00,2013-04-12 11:03:00,
2013-04-12 07:08:00,60.2,58.5,29.46,SSE,160,1.0,9.0,94,0.00,,---,0.42,0.00,VWS V14.00,2013-04-12 11:08:00,
2013-04-12 07:13:00,60.2,58.5,29.46,South,182,0.0,9.0,94,0.00,,---,0.42,0.00,VWS V14.00,2013-04-12 11:13:00,
2013-04-12 07:18:00,60.2,58.5,29.46,West,267,0.0,9.0,94,0.00,,---,0.42,0.00,VWS V14.00,2013-04-12 11:18:00,
2013-04-12 07:23:00,60.0,58.3,29.46,SSW,200,0.0,9.0,94,0.00,,---,0.42,0.00,VWS V14.00,2013-04-12 11:23:00,
2013-04-12 07:28:00,60.0,58.3,29.46,SSE,165,0.0,9.0,94,0.00,,---,0.42,0.00,VWS V14.00,2013-04-12 11:28:00,
2013-04-12 07:30:00,60.1,58.4,29.46,ESE,111,5.0,9.0,94,0.00,,---,0.42,9.00,VWS V14.00,2013-04-12 11:30:00,
2013-04-12 07:33:00,60.0,58.3,29.46,SSE,161,2.0,6.0,94,0.00,,---,0.42,11.00,VWS V14.00,2013-04-12 11:33:00,
2013-04-12 07:38:00,60.1,58.4,29.46,SSW,206,0.0,7.0,94,0.00,,---,0.42,19.00,VWS V14.00,2013-04-12 11:38:00,
2013-04-12 07:43:00,60.2,58.5,29.46,South,175,1.0,7.0,94,0.00,,---,0.42,30.00,VWS V14.00,2013-04-12 11:43:00,
2013-04-12 07:48:00,60.2,58.5,29.46,SSW,205,0.0,7.0,94,0.00,,---,0.42,44.00,VWS V14.00,2013-04-12 11:48:00,
2013-04-12 07:53:00,60.3,58.6,29.46,ESE,112,0.0,7.0,94,0.00,,---,0.42,46.00,VWS V14.00,2013-04-12 11:53:00,
2013-04-12 07:58:00,60.4,58.4,29.46,WSW,240,0.0,8.0,93,0.00,,---,0.42,53.00,VWS V14.00,2013-04-12 11:58:00,
2013-04-12 08:00:00,60.5,58.5,29.46,ESE,106,4.0,8.0,93,0.00,,---,0.42,65.00,VWS V14.00,2013-04-12 12:00:00,
2013-04-12 08:03:00,60.5,58.5,29.46,SSW,208,0.0,4.0,93,0.00,,---,0.42,72.00,VWS V14.00,2013-04-12 12:03:00,
2013-04-12 08:08:00,60.6,58.6,29.46,South,188,3.0,10.0,93,0.00,,---,0.42,109.00,VWS V14.00,2013-04-12 12:08:00,
2013-04-12 08:13:00,60.8,58.8,29.46,WNW,285,0.0,10.0,93,0.00,,---,0.42,114.00,VWS V14.00,2013-04-12 12:13:00,
2013-04-12 08:18:00,61.1,59.1,29.46,WSW,239,0.0,10.0,93,0.00,,---,0.42,125.00,VWS V14.00,2013-04-12 12:18:00,
2013-04-12 08:23:00,61.4,59.1,29.47,SSW,207,2.0,10.0,92,0.00,,---,0.42,109.00,VWS V14.00,2013-04-12 12:23:00,
2013-04-12 08:28:00,61.6,59.3,29.47,ENE,77,2.0,10.0,92,0.00,,---,0.42,118.00,VWS V14.00,2013-04-12 12:28:00,
2013-04-12 08:30:00,61.7,59.0,29.47,SW,221,0.0,10.0,91,0.00,,---,0.42,76.00,VWS V14.00,2013-04-12 12:30:00,
2013-04-12 08:33:00,61.8,59.2,29.47,WSW,246,3.0,7.0,91,0.00,,---,0.42,77.00,VWS V14.00,2013-04-12 12:33:00,
2013-04-12 08:38:00,62.0,59.3,29.48,West,273,8.0,11.0,91,0.00,,---,0.42,128.00,VWS V14.00,2013-04-12 12:38:00,
2013-04-12 08:43:00,62.2,59.2,29.49,WNW,296,0.0,11.0,90,0.00,,---,0.42,65.00,VWS V14.00,2013-04-12 12:43:00,
2013-04-12 08:48:00,62.3,59.3,29.49,SW,236,5.0,11.0,90,0.00,,---,0.42,98.00,VWS V14.00,2013-04-12 12:48:00,
2013-04-12 08:54:00,62.4,59.1,29.49,SSE,164,0.0,11.0,89,0.00,,---,0.42,53.00,VWS V14.00,2013-04-12 12:54:00,
2013-04-12 08:59:00,62.4,59.4,29.49,WSW,258,3.0,11.0,90,0.00,,---,0.43,62.00,VWS V14.00,2013-04-12 12:59:00,
2013-04-12 09:00:00,62.3,59.3,29.49,WSW,257,0.0,11.0,90,0.00,,---,0.43,116.00,VWS V14.00,2013-04-12 13:00:00,
2013-04-12 09:04:00,62.2,59.2,29.49,WSW,256,6.0,7.0,90,0.08,,---,0.44,40.00,VWS V14.00,2013-04-12 13:04:00,
2013-04-12 09:09:00,62.1,59.5,29.49,West,264,11.0,12.0,91,0.08,,---,0.44,62.00,VWS V14.00,2013-04-12 13:09:00,
2013-04-12 09:14:00,62.0,59.0,29.49,South,187,0.0,12.0,90,0.05,,---,0.44,144.00,VWS V14.00,2013-04-12 13:14:00,
2013-04-12 09:19:00,62.1,59.5,29.50,South,183,4.0,12.0,91,0.04,,---,0.44,162.00,VWS V14.00,2013-04-12 13:19:00,
2013-04-12 09:24:00,62.3,59.3,29.50,SE,141,2.0,12.0,90,0.00,,---,0.44,156.00,VWS V14.00,2013-04-12 13:24:00,
2013-04-12 09:29:00,62.6,59.3,29.50,NW,313,4.0,12.0,89,0.00,,---,0.44,199.00,VWS V14.00,2013-04-12 13:29:00,
2013-04-12 09:30:00,62.7,59.4,29.50,SW,217,2.0,12.0,89,0.00,,---,0.44,213.00,VWS V14.00,2013-04-12 13:30:00,
2013-04-12 09:34:00,63.0,60.0,29.50,WSW,238,8.0,8.0,90,0.00,,---,0.44,260.00,VWS V14.00,2013-04-12 13:34:00,
2013-04-12 09:39:00,63.5,59.9,29.49,West,264,1.0,12.0,88,0.00,,---,0.44,510.00,VWS V14.00,2013-04-12 13:39:00,
2013-04-12 09:44:00,64.1,60.2,29.50,SSW,212,6.0,12.0,87,0.00,,---,0.44,580.00,VWS V14.00,2013-04-12 13:44:00,
2013-04-12 09:49:00,64.4,59.8,29.50,South,184,0.0,12.0,85,0.00,,---,0.44,246.00,VWS V14.00,2013-04-12 13:49:00,
2013-04-12 09:54:00,64.7,60.1,29.50,WSW,257,10.0,12.0,85,0.00,,---,0.44,425.00,VWS V14.00,2013-04-12 13:54:00,
2013-04-12 09:59:00,64.7,59.8,29.50,South,189,2.0,12.0,84,0.00,,---,0.44,111.00,VWS V14.00,2013-04-12 13:59:00,
2013-04-12 10:00:00,64.6,59.3,29.50,SSW,196,3.0,12.0,83,0.00,,---,0.44,127.00,VWS V14.00,2013-04-12 14:00:00,
2013-04-12 10:04:00,64.4,58.8,29.51,SW,234,6.0,14.0,82,0.00,,---,0.44,169.00,VWS V14.00,2013-04-12 14:04:00,
2013-04-12 10:09:00,64.1,58.8,29.51,SW,221,9.0,14.0,83,0.00,,---,0.44,93.00,VWS V14.00,2013-04-12 14:09:00,
2013-04-12 10:14:00,63.8,58.9,29.51,WSW,252,3.0,14.0,84,0.00,,---,0.44,90.00,VWS V14.00,2013-04-12 14:14:00,
2013-04-12 10:19:00,63.5,58.6,29.51,WSW,252,6.0,14.0,84,0.00,,---,0.44,151.00,VWS V14.00,2013-04-12 14:19:00,
2013-04-12 10:24:00,63.5,58.6,29.52,WSW,257,3.0,14.0,84,0.00,,---,0.44,183.00,VWS V14.00,2013-04-12 14:24:00,
2013-04-12 10:29:00,63.6,59.0,29.53,West,280,9.0,14.0,85,0.00,,---,0.44,90.00,VWS V14.00,2013-04-12 14:29:00,
2013-04-12 10:30:00,63.3,59.0,29.53,West,271,15.0,22.0,86,0.00,,---,0.44,63.00,VWS V14.00,2013-04-12 14:30:00,
2013-04-12 10:34:00,62.2,58.3,29.53,WSW,254,14.0,20.0,87,0.00,,---,0.44,162.00,VWS V14.00,2013-04-12 14:34:00,
2013-04-12 10:39:00,61.4,57.8,29.53,West,280,9.0,20.0,88,0.00,,---,0.44,200.00,VWS V14.00,2013-04-12 14:39:00,
2013-04-12 10:45:00,61.6,58.3,29.54,West,275,8.0,20.0,89,0.00,,---,0.44,752.00,VWS V14.00,2013-04-12 14:45:00,
2013-04-12 10:50:00,62.0,57.5,29.54,WSW,256,13.0,20.0,85,0.00,,---,0.44,751.00,VWS V14.00,2013-04-12 14:50:00,
2013-04-12 10:55:00,62.5,57.6,29.54,West,263,11.0,20.0,84,0.00,,---,0.44,394.00,VWS V14.00,2013-04-12 14:55:00,
2013-04-12 11:00:00,62.5,57.6,29.54,West,275,14.0,20.0,84,0.00,,---,0.44,292.00,VWS V14.00,2013-04-12 15:00:00,
2013-04-12 11:05:00,62.3,56.7,29.54,WSW,255,15.0,17.0,82,0.00,,---,0.44,248.00,VWS V14.00,2013-04-12 15:05:00,
2013-04-12 11:10:00,62.2,56.6,29.55,WSW,256,13.0,19.0,82,0.00,,---,0.44,877.00,VWS V14.00,2013-04-12 15:10:00,
2013-04-12 11:15:00,62.6,57.0,29.55,West,279,9.0,19.0,82,0.00,,---,0.44,647.00,VWS V14.00,2013-04-12 15:15:00,
2013-04-12 11:20:00,63.2,58.3,29.55,WNW,284,15.0,19.0,84,0.00,,---,0.44,561.00,VWS V14.00,2013-04-12 15:20:00,
2013-04-12 11:25:00,63.0,56.0,29.56,SSW,207,8.0,19.0,78,0.00,,---,0.44,332.00,VWS V14.00,2013-04-12 15:25:00,
2013-04-12 11:30:00,62.7,55.8,29.56,West,271,18.0,26.0,78,0.00,,---,0.44,315.00,VWS V14.00,2013-04-12 15:30:00,
2013-04-12 11:35:00,62.1,54.8,29.56,West,274,6.0,22.0,77,0.00,,---,0.44,151.00,VWS V14.00,2013-04-12 15:35:00,
2013-04-12 11:40:00,61.4,54.5,29.57,West,265,12.0,22.0,78,0.00,,---,0.44,179.00,VWS V14.00,2013-04-12 15:40:00,
2013-04-12 11:45:00,60.8,54.6,29.57,WSW,251,13.0,22.0,80,0.00,,---,0.44,359.00,VWS V14.00,2013-04-12 15:45:00,
2013-04-12 11:50:00,60.1,54.3,29.58,WNW,284,11.0,23.0,81,0.00,,---,0.44,320.00,VWS V14.00,2013-04-12 15:50:00,
2013-04-12 11:55:00,59.6,54.4,29.58,WSW,257,4.0,23.0,83,0.00,,---,0.44,299.00,VWS V14.00,2013-04-12 15:55:00,
2013-04-12 12:00:00,59.4,53.9,29.58,WSW,252,10.0,23.0,82,0.00,,---,0.44,316.00,VWS V14.00,2013-04-12 16:00:00,
2013-04-12 12:05:00,59.6,54.4,29.58,West,273,15.0,15.0,83,0.00,,---,0.44,448.00,VWS V14.00,2013-04-12 16:05:00,
2013-04-12 12:10:00,60.0,54.5,29.58,WSW,255,5.0,17.0,82,0.00,,---,0.44,339.00,VWS V14.00,2013-04-12 16:10:00,
2013-04-12 12:15:00,60.4,54.9,29.58,West,268,4.0,17.0,82,0.00,,---,0.44,285.00,VWS V14.00,2013-04-12 16:15:00,
2013-04-12 12:20:00,60.3,53.4,29.58,West,275,6.0,18.0,78,0.00,,---,0.44,278.00,VWS V14.00,2013-04-12 16:20:00,
2013-04-12 12:25:00,60.1,53.2,29.59,West,264,1.0,18.0,78,0.00,,---,0.44,264.00,VWS V14.00,2013-04-12 16:25:00,
2013-04-12 12:30:00,60.2,53.7,29.59,SW,230,7.0,18.0,79,0.00,,---,0.44,267.00,VWS V14.00,2013-04-12 16:30:00,
2013-04-12 12:35:00,60.1,53.6,29.59,WSW,251,6.0,16.0,79,0.00,,---,0.44,221.00,VWS V14.00,2013-04-12 16:35:00,
2013-04-12 12:40:00,59.7,53.9,29.59,West,278,13.0,16.0,81,0.00,,---,0.44,163.00,VWS V14.00,2013-04-12 16:40:00,
2013-04-12 12:45:00,58.7,54.2,29.60,WNW,282,11.0,16.0,85,0.00,,---,0.44,401.00,VWS V14.00,2013-04-12 16:45:00,
2013-04-12 12:50:00,58.4,53.9,29.60,West,277,8.0,16.0,85,0.00,,---,0.44,531.00,VWS V14.00,2013-04-12 16:50:00,
2013-04-12 12:55:00,58.9,54.4,29.60,West,259,6.0,16.0,85,0.00,,---,0.44,580.00,VWS V14.00,2013-04-12 16:55:00,
2013-04-12 13:00:00,59.3,54.2,29.60,WSW,245,5.0,16.0,83,0.00,,---,0.44,503.00,VWS V14.00,2013-04-12 17:00:00,
2013-04-12 13:05:00,59.6,53.4,29.60,West,272,6.0,12.0,80,0.00,,---,0.44,357.00,VWS V14.00,2013-04-12 17:05:00,
2013-04-12 13:10:00,59.8,53.6,29.59,WSW,247,4.0,14.0,80,0.00,,---,0.44,313.00,VWS V14.00,2013-04-12 17:10:00,
2013-04-12 13:15:00,59.8,53.6,29.59,West,269,4.0,14.0,80,0.00,,---,0.44,267.00,VWS V14.00,2013-04-12 17:15:00,
2013-04-12 13:20:00,59.9,53.7,29.59,West,270,8.0,14.0,80,0.00,,---,0.44,320.00,VWS V14.00,2013-04-12 17:20:00,
2013-04-12 13:25:00,59.9,53.4,29.59,WSW,250,8.0,14.0,79,0.00,,---,0.44,265.00,VWS V14.00,2013-04-12 17:25:00,
2013-04-12 13:30:00,59.8,53.3,29.59,WSW,240,8.0,14.0,79,0.00,,---,0.44,325.00,VWS V14.00,2013-04-12 17:30:00,
2013-04-12 13:35:00,60.1,53.2,29.58,West,267,8.0,12.0,78,0.00,,---,0.44,295.00,VWS V14.00,2013-04-12 17:35:00,
2013-04-12 13:40:00,60.2,53.0,29.59,WSW,250,6.0,13.0,77,0.00,,---,0.44,350.00,VWS V14.00,2013-04-12 17:40:00,
2013-04-12 13:46:00,60.3,53.4,29.58,WSW,246,5.0,14.0,78,0.00,,---,0.44,1081.00,VWS V14.00,2013-04-12 17:46:00,
2013-04-12 13:51:00,60.9,53.7,29.58,West,268,11.0,15.0,77,0.00,,---,0.44,306.00,VWS V14.00,2013-04-12 17:51:00,
2013-04-12 13:56:00,61.6,53.2,29.58,West,277,9.0,16.0,74,0.00,,---,0.44,1111.00,VWS V14.00,2013-04-12 17:56:00,
2013-04-12 14:00:00,62.5,53.7,29.58,West,267,18.0,20.0,73,0.00,,---,0.44,1053.00,VWS V14.00,2013-04-12 18:00:00,
2013-04-12 14:01:00,62.5,53.7,29.58,West,267,18.0,20.0,73,0.00,,---,0.44,1053.00,VWS V14.00,2013-04-12 18:01:00,
2013-04-12 14:06:00,63.4,54.6,29.58,SSW,196,4.0,18.0,73,0.00,,---,0.44,1013.00,VWS V14.00,2013-04-12 18:06:00,
2013-04-12 14:12:00,64.6,54.2,29.58,West,263,6.0,18.0,69,0.00,,---,0.44,997.00,VWS V14.00,2013-04-12 18:12:00,
2013-04-12 14:17:00,64.4,52.0,29.58,WSW,246,12.0,26.0,64,0.00,,---,0.44,965.00,VWS V14.00,2013-04-12 18:17:00,
2013-04-12 14:23:00,64.5,51.2,29.58,SW,219,5.0,26.0,62,0.00,,---,0.44,1044.00,VWS V14.00,2013-04-12 18:23:00,
2013-04-12 14:28:00,64.5,52.1,29.58,South,172,4.0,26.0,64,0.00,,---,0.44,962.00,VWS V14.00,2013-04-12 18:28:00,
2013-04-12 14:30:00,64.5,49.9,29.59,WSW,250,3.0,26.0,59,0.00,,---,0.44,932.00,VWS V14.00,2013-04-12 18:30:00,
2013-04-12 15:00:00,62.7,51.6,29.58,West,265,17.0,22.0,67,0.00,,---,0.44,793.00,VWS V14.00,2013-04-12 19:00:00,
2013-04-12 15:26:00,63.2,49.5,29.58,West,263,7.0,19.0,61,0.00,,---,0.44,357.00,VWS V14.00,2013-04-12 19:26:00,
2013-04-12 15:27:00,63.2,50.4,29.59,West,274,15.0,19.0,63,0.00,,---,0.44,357.00,VWS V14.00,2013-04-12 19:27:00,
2013-04-12 15:30:00,63.6,49.5,29.58,West,269,11.0,19.0,60,0.00,,---,0.44,995.00,VWS V14.00,2013-04-12 19:30:00,
2013-04-12 15:32:00,63.6,49.5,29.59,West,265,6.0,12.0,60,0.00,,---,0.44,951.00,VWS V14.00,2013-04-12 19:32:00,
2013-04-12 15:37:00,64.0,49.4,29.58,WSW,247,7.0,20.0,59,0.00,,---,0.44,893.00,VWS V14.00,2013-04-12 19:37:00,
2013-04-12 15:42:00,64.0,48.9,29.58,West,259,14.0,21.0,58,0.00,,---,0.44,865.00,VWS V14.00,2013-04-12 19:42:00,
2013-04-12 15:47:00,64.2,49.6,29.59,West,264,3.0,22.0,59,0.00,,---,0.44,784.00,VWS V14.00,2013-04-12 19:47:00,
2013-04-12 15:52:00,64.8,49.2,29.59,West,261,18.0,22.0,57,0.00,,---,0.44,784.00,VWS V14.00,2013-04-12 19:52:00,
2013-04-12 15:57:00,64.2,47.2,29.59,West,267,14.0,28.0,54,0.00,,---,0.44,798.00,VWS V14.00,2013-04-12 19:57:00,
2013-04-12 16:00:00,64.0,46.5,29.59,West,259,15.0,28.0,53,0.00,,---,0.44,181.00,VWS V14.00,2013-04-12 20:00:00,
2013-04-12 16:02:00,63.8,46.4,29.59,WNW,292,11.0,15.0,53,0.00,,---,0.44,181.00,VWS V14.00,2013-04-12 20:02:00,
2013-04-12 16:07:00,62.9,46.0,29.59,West,265,13.0,18.0,54,0.00,,---,0.44,274.00,VWS V14.00,2013-04-12 20:07:00,
2013-04-12 16:12:00,63.1,46.7,29.59,West,267,13.0,26.0,55,0.00,,---,0.44,729.00,VWS V14.00,2013-04-12 20:12:00,
2013-04-12 16:17:00,63.7,47.7,29.59,West,273,8.0,26.0,56,0.00,,---,0.44,745.00,VWS V14.00,2013-04-12 20:17:00,
2013-04-12 16:22:00,63.7,45.8,29.59,West,277,7.0,26.0,52,0.00,,---,0.44,102.00,VWS V14.00,2013-04-12 20:22:00,
2013-04-12 16:27:00,63.2,44.8,29.59,West,267,14.0,26.0,51,0.00,,---,0.44,701.00,VWS V14.00,2013-04-12 20:27:00,
2013-04-12 16:30:00,63.3,45.9,29.59,WNW,285,13.0,26.0,53,0.00,,---,0.44,707.00,VWS V14.00,2013-04-12 20:30:00,
2013-04-12 16:33:00,63.5,46.1,29.59,West,277,19.0,20.0,53,0.00,,---,0.44,722.00,VWS V14.00,2013-04-12 20:33:00,
2013-04-12 16:38:00,63.7,46.3,29.59,SW,236,6.0,21.0,53,0.00,,---,0.44,657.00,VWS V14.00,2013-04-12 20:38:00,
2013-04-12 16:43:00,62.9,44.0,29.59,West,261,12.0,21.0,50,0.00,,---,0.44,703.00,VWS V14.00,2013-04-12 20:43:00,
2013-04-12 16:48:00,63.2,45.8,29.60,West,259,18.0,21.0,53,0.00,,---,0.44,629.00,VWS V14.00,2013-04-12 20:48:00,
2013-04-12 16:53:00,63.3,45.4,29.59,WNW,285,6.0,23.0,52,0.00,,---,0.44,657.00,VWS V14.00,2013-04-12 20:53:00,
2013-04-12 16:58:00,63.5,46.1,29.60,West,263,12.0,23.0,53,0.00,,---,0.44,615.00,VWS V14.00,2013-04-12 20:58:00,
2013-04-12 17:00:00,63.5,45.1,29.60,West,261,11.0,23.0,51,0.00,,---,0.44,577.00,VWS V14.00,2013-04-12 21:00:00,
2013-04-12 17:03:00,63.4,45.0,29.60,West,267,12.0,16.0,51,0.00,,---,0.44,592.00,VWS V14.00,2013-04-12 21:03:00,
2013-04-12 17:08:00,62.2,44.4,29.61,West,275,12.0,21.0,52,0.00,,---,0.44,243.00,VWS V14.00,2013-04-12 21:08:00,
2013-04-12 17:13:00,62.1,45.3,29.61,West,277,11.0,21.0,54,0.00,,---,0.44,580.00,VWS V14.00,2013-04-12 21:13:00,
2013-04-12 17:18:00,61.6,43.8,29.62,WNW,284,15.0,21.0,52,0.00,,---,0.44,120.00,VWS V14.00,2013-04-12 21:18:00,
2013-04-12 17:23:00,61.0,44.2,29.62,West,278,11.0,22.0,54,0.00,,---,0.44,529.00,VWS V14.00,2013-04-12 21:23:00,
2013-04-12 17:28:00,61.4,44.1,29.62,WSW,252,12.0,22.0,53,0.00,,---,0.44,404.00,VWS V14.00,2013-04-12 21:28:00,
2013-04-12 17:30:00,61.2,43.5,29.62,West,276,19.0,22.0,52,0.00,,---,0.44,134.00,VWS V14.00,2013-04-12 21:30:00,
2013-04-12 17:33:00,61.1,42.8,29.63,WSW,256,11.0,19.0,51,0.00,,---,0.44,134.00,VWS V14.00,2013-04-12 21:33:00,
2013-04-12 17:38:00,61.1,42.8,29.63,West,277,19.0,23.0,51,0.00,,---,0.44,155.00,VWS V14.00,2013-04-12 21:38:00,
2013-04-12 17:43:00,60.7,43.0,29.63,West,274,13.0,23.0,52,0.00,,---,0.44,97.00,VWS V14.00,2013-04-12 21:43:00,
2013-04-12 17:48:00,59.7,42.6,29.64,West,265,14.0,23.0,53,0.00,,---,0.44,188.00,VWS V14.00,2013-04-12 21:48:00,
2013-04-12 17:53:00,59.3,42.2,29.65,West,271,13.0,23.0,53,0.00,,---,0.44,77.00,VWS V14.00,2013-04-12 21:53:00,
2013-04-12 17:58:00,58.6,42.5,29.65,WNW,283,15.0,23.0,55,0.00,,---,0.44,123.00,VWS V14.00,2013-04-12 21:58:00,
2013-04-12 18:00:00,58.5,41.9,29.65,West,281,7.0,23.0,54,0.00,,---,0.44,83.00,VWS V14.00,2013-04-12 22:00:00,
2013-04-12 18:03:00,58.4,41.8,29.65,West,267,15.0,20.0,54,0.00,,---,0.44,84.00,VWS V14.00,2013-04-12 22:03:00,
2013-04-12 18:08:00,58.0,41.9,29.66,West,271,12.0,20.0,55,0.00,,---,0.44,88.00,VWS V14.00,2013-04-12 22:08:00,
2013-04-12 18:13:00,57.7,42.6,29.66,West,274,7.0,20.0,57,0.00,,---,0.44,127.00,VWS V14.00,2013-04-12 22:13:00,
2013-04-12 18:18:00,57.6,42.0,29.67,NW,306,13.0,20.0,56,0.00,,---,0.44,128.00,VWS V14.00,2013-04-12 22:18:00,
2013-04-12 18:23:00,57.5,42.4,29.67,WNW,286,8.0,20.0,57,0.00,,---,0.44,295.00,VWS V14.00,2013-04-12 22:23:00,
2013-04-12 18:28:00,57.8,42.7,29.68,WNW,288,6.0,20.0,57,0.00,,---,0.44,301.00,VWS V14.00,2013-04-12 22:28:00,
2013-04-12 18:30:00,57.7,43.9,29.68,WNW,298,13.0,20.0,60,0.00,,---,0.44,301.00,VWS V14.00,2013-04-12 22:30:00,
2013-04-12 18:33:00,56.9,43.6,29.68,WNW,298,19.0,23.0,61,0.00,,---,0.44,167.00,VWS V14.00,2013-04-12 22:33:00,
2013-04-12 18:38:00,55.1,43.6,29.69,NNW,329,10.0,23.0,65,0.00,,---,0.44,60.00,VWS V14.00,2013-04-12 22:38:00,
2013-04-12 18:43:00,53.3,43.0,29.69,NW,309,19.0,23.0,68,0.00,,---,0.44,49.00,VWS V14.00,2013-04-12 22:43:00,
2013-04-12 18:48:00,52.3,42.5,29.71,West,278,8.0,23.0,69,0.00,,---,0.44,63.00,VWS V14.00,2013-04-12 22:48:00,
2013-04-12 18:53:00,52.1,43.0,29.71,WNW,289,12.0,23.0,71,0.00,,---,0.44,60.00,VWS V14.00,2013-04-12 22:53:00,
2013-04-12 18:58:00,51.9,42.4,29.72,NNW,343,8.0,23.0,70,0.00,,---,0.44,42.00,VWS V14.00,2013-04-12 22:58:00,
2013-04-12 19:00:00,51.6,42.2,29.71,WNW,296,9.0,23.0,70,0.00,,---,0.44,58.00,VWS V14.00,2013-04-12 23:00:00,
2013-04-12 19:03:00,51.4,42.0,29.72,WNW,303,6.0,17.0,70,0.00,,---,0.44,46.00,VWS V14.00,2013-04-12 23:03:00,
2013-04-12 19:08:00,50.8,41.4,29.72,WNW,298,7.0,17.0,70,0.00,,---,0.44,32.00,VWS V14.00,2013-04-12 23:08:00,
2013-04-12 19:13:00,50.3,41.3,29.73,NW,306,9.0,17.0,71,0.00,,---,0.44,37.00,VWS V14.00,2013-04-12 23:13:00,
2013-04-12 19:18:00,50.0,41.3,29.73,WNW,292,11.0,17.0,72,0.00,,---,0.44,40.00,VWS V14.00,2013-04-12 23:18:00,
2013-04-12 19:23:00,49.9,41.2,29.73,WNW,288,6.0,17.0,72,0.00,,---,0.44,35.00,VWS V14.00,2013-04-12 23:23:00,
2013-04-12 19:28:00,49.6,41.0,29.74,NW,307,11.0,17.0,72,0.00,,---,0.44,23.00,VWS V14.00,2013-04-12 23:28:00,
2013-04-12 19:30:00,49.4,40.4,29.74,NW,307,17.0,17.0,71,0.00,,---,0.44,19.00,VWS V14.00,2013-04-12 23:30:00,
2013-04-12 19:33:00,49.2,39.5,29.74,NW,323,5.0,19.0,69,0.00,,---,0.44,18.00,VWS V14.00,2013-04-12 23:33:00,
2013-04-12 19:38:00,48.8,39.1,29.75,WNW,295,9.0,19.0,69,0.00,,---,0.44,11.00,VWS V14.00,2013-04-12 23:38:00,
2013-04-12 19:43:00,48.5,39.2,29.75,WNW,282,6.0,19.0,70,0.00,,---,0.44,9.00,VWS V14.00,2013-04-12 23:43:00,
2013-04-12 19:48:00,48.2,38.5,29.76,WNW,296,9.0,19.0,69,0.00,,---,0.44,5.00,VWS V14.00,2013-04-12 23:48:00,
2013-04-12 19:53:00,47.9,38.2,29.76,NW,318,13.0,19.0,69,0.00,,---,0.44,0.00,VWS V14.00,2013-04-12 23:53:00,
2013-04-12 19:58:00,47.6,38.0,29.76,WNW,292,12.0,19.0,69,0.00,,---,0.44,0.00,VWS V14.00,2013-04-12 23:58:00,
2013-04-12 20:00:00,47.6,38.0,29.76,NNW,329,9.0,19.0,69,0.00,,---,0.44,0.00,VWS V14.00,2013-04-13 00:00:00,
2013-04-12 20:03:00,47.5,37.8,29.76,WNW,300,8.0,14.0,69,0.00,,---,0.44,0.00,VWS V14.00,2013-04-13 00:03:00,
2013-04-12 20:08:00,47.3,37.7,29.76,WNW,288,6.0,14.0,69,0.00,,---,0.44,0.00,VWS V14.00,2013-04-13 00:08:00,
2013-04-12 20:13:00,47.2,37.9,29.77,NW,312,11.0,14.0,70,0.00,,---,0.44,0.00,VWS V14.00,2013-04-13 00:13:00,
2013-04-12 20:18:00,47.2,37.9,29.77,WNW,287,6.0,14.0,70,0.00,,---,0.44,0.00,VWS V14.00,2013-04-13 00:18:00,
2013-04-12 20:24:00,47.2,37.9,29.77,WNW,290,9.0,14.0,70,0.00,,---,0.44,0.00,VWS V14.00,2013-04-13 00:24:00,
2013-04-12 20:29:00,47.0,37.4,29.77,NW,311,5.0,14.0,69,0.00,,---,0.44,0.00,VWS V14.00,2013-04-13 00:29:00,
2013-04-12 20:30:00,46.8,37.5,29.77,WNW,300,4.0,14.0,70,0.00,,---,0.44,0.00,VWS V14.00,2013-04-13 00:30:00,
2013-04-12 20:34:00,46.5,37.6,29.77,WNW,298,4.0,5.0,71,0.00,,---,0.44,0.00,VWS V14.00,2013-04-13 00:34:00,
2013-04-12 20:39:00,46.1,37.2,29.78,WNW,283,4.0,6.0,71,0.00,,---,0.44,0.00,VWS V14.00,2013-04-13 00:39:00,
2013-04-12 20:44:00,45.8,37.3,29.77,WNW,292,1.0,6.0,72,0.00,,---,0.44,0.00,VWS V14.00,2013-04-13 00:44:00,
2013-04-12 20:49:00,45.6,37.1,29.78,WNW,292,0.0,6.0,72,0.00,,---,0.44,0.00,VWS V14.00,2013-04-13 00:49:00,
2013-04-12 20:54:00,45.6,37.5,29.78,WNW,292,0.0,6.0,73,0.00,,---,0.44,0.00,VWS V14.00,2013-04-13 00:54:00,
2013-04-12 20:59:00,45.6,37.5,29.78,WNW,292,0.0,6.0,73,0.00,,---,0.44,0.00,VWS V14.00,2013-04-13 00:59:00,
2013-04-12 21:00:00,45.6,37.8,29.79,WNW,292,0.0,6.0,74,0.00,,---,0.44,0.00,VWS V14.00,2013-04-13 01:00:00,
2013-04-12 21:04:00,45.7,37.9,29.79,WNW,292,1.0,2.0,74,0.00,,---,0.44,0.00,VWS V14.00,2013-04-13 01:04:00,
2013-04-12 21:09:00,45.8,37.7,29.79,WSW,250,2.0,3.0,73,0.00,,---,0.44,0.00,VWS V14.00,2013-04-13 01:09:00,
2013-04-12 21:14:00,46.2,38.0,29.79,WNW,284,2.0,7.0,73,0.00,,---,0.44,0.00,VWS V14.00,2013-04-13 01:14:00,
2013-04-12 21:19:00,46.6,38.4,29.79,WNW,289,4.0,7.0,73,0.00,,---,0.44,0.00,VWS V14.00,2013-04-13 01:19:00,
2013-04-12 21:24:00,46.8,38.3,29.79,West,280,6.0,8.0,72,0.00,,---,0.44,0.00,VWS V14.00,2013-04-13 01:24:00,
2013-04-12 21:29:00,47.1,37.8,29.80,West,278,6.0,9.0,70,0.00,,---,0.44,0.00,VWS V14.00,2013-04-13 01:29:00,
2013-04-12 21:30:00,47.3,37.7,29.80,WNW,294,8.0,14.0,69,0.00,,---,0.44,0.00,VWS V14.00,2013-04-13 01:30:00,
2013-04-12 21:34:00,47.5,38.2,29.80,WNW,284,5.0,8.0,70,0.00,,---,0.44,0.00,VWS V14.00,2013-04-13 01:34:00,
2013-04-12 21:39:00,47.6,38.0,29.80,West,268,6.0,12.0,69,0.00,,---,0.44,0.00,VWS V14.00,2013-04-13 01:39:00,
2013-04-12 21:44:00,47.8,38.1,29.81,West,271,4.0,12.0,69,0.00,,---,0.44,0.00,VWS V14.00,2013-04-13 01:44:00,
2013-04-12 21:49:00,47.8,37.8,29.81,WSW,257,5.0,12.0,68,0.00,,---,0.44,0.00,VWS V14.00,2013-04-13 01:49:00,
2013-04-12 21:54:00,47.9,37.9,29.81,West,261,5.0,12.0,68,0.00,,---,0.44,0.00,VWS V14.00,2013-04-13 01:54:00,
2013-04-12 21:59:00,48.0,38.3,29.82,West,264,5.0,12.0,69,0.00,,---,0.44,0.00,VWS V14.00,2013-04-13 01:59:00,
2013-04-12 22:00:00,48.0,38.0,29.82,West,268,2.0,12.0,68,0.00,,---,0.44,0.00,VWS V14.00,2013-04-13 02:00:00,
2013-04-12 22:04:00,47.9,37.9,29.82,West,277,4.0,7.0,68,0.00,,---,0.44,0.00,VWS V14.00,2013-04-13 02:04:00,
2013-04-12 22:09:00,47.9,37.9,29.81,West,265,3.0,7.0,68,0.00,,---,0.44,0.00,VWS V14.00,2013-04-13 02:09:00,
2013-04-12 22:14:00,47.8,38.5,29.81,West,265,1.0,7.0,70,0.00,,---,0.44,0.00,VWS V14.00,2013-04-13 02:14:00,
2013-04-12 22:19:00,47.6,38.0,29.82,West,265,1.0,7.0,69,0.00,,---,0.44,0.00,VWS V14.00,2013-04-13 02:19:00,
2013-04-12 22:24:00,47.5,38.2,29.82,West,277,5.0,7.0,70,0.00,,---,0.44,0.00,VWS V14.00,2013-04-13 02:24:00,
2013-04-12 22:29:00,47.4,38.1,29.82,WNW,290,4.0,7.0,70,0.00,,---,0.44,0.00,VWS V14.00,2013-04-13 02:29:00,
2013-04-12 22:30:00,47.4,38.1,29.82,WNW,285,2.0,7.0,70,0.00,,---,0.44,0.00,VWS V14.00,2013-04-13 02:30:00,
2013-04-12 22:34:00,47.4,38.5,29.82,West,281,2.0,4.0,71,0.00,,---,0.44,0.00,VWS V14.00,2013-04-13 02:34:00,
2013-04-12 22:39:00,47.3,38.4,29.82,West,273,2.0,5.0,71,0.00,,---,0.44,0.00,VWS V14.00,2013-04-13 02:39:00,
2013-04-12 22:44:00,47.2,38.3,29.82,West,274,1.0,6.0,71,0.00,,---,0.44,0.00,VWS V14.00,2013-04-13 02:44:00,
2013-04-12 22:49:00,47.1,38.2,29.82,West,274,0.0,6.0,71,0.00,,---,0.44,0.00,VWS V14.00,2013-04-13 02:49:00,
2013-04-12 22:55:00,47.1,38.2,29.82,WNW,288,0.0,6.0,71,0.00,,---,0.44,0.00,VWS V14.00,2013-04-13 02:55:00,
2013-04-12 22:59:00,47.0,38.1,29.82,WNW,290,4.0,6.0,71,0.00,,---,0.44,0.00,VWS V14.00,2013-04-13 02:59:00,
2013-04-12 23:00:00,47.0,38.1,29.82,WNW,290,4.0,6.0,71,0.00,,---,0.44,0.00,VWS V14.00,2013-04-13 03:00:00,
2013-04-12 23:04:00,47.0,38.1,29.82,WNW,294,2.0,5.0,71,0.00,,---,0.44,0.00,VWS V14.00,2013-04-13 03:04:00,
2013-04-12 23:10:00,47.0,38.5,29.82,WNW,293,2.0,5.0,72,0.00,,---,0.44,0.00,VWS V14.00,2013-04-13 03:10:00,
2013-04-12 23:15:00,46.8,38.3,29.82,WNW,293,1.0,5.0,72,0.00,,---,0.44,0.00,VWS V14.00,2013-04-13 03:15:00,
2013-04-12 23:20:00,46.7,38.5,29.82,WNW,288,5.0,5.0,73,0.00,,---,0.44,0.00,VWS V14.00,2013-04-13 03:20:00,
2013-04-12 23:25:00,46.7,38.2,29.82,WNW,288,2.0,5.0,72,0.00,,---,0.44,0.00,VWS V14.00,2013-04-13 03:25:00,
2013-04-12 23:30:00,46.7,38.2,29.82,WNW,290,2.0,5.0,72,0.00,,---,0.44,0.00,VWS V14.00,2013-04-13 03:30:00,
2013-04-12 23:35:00,46.5,38.7,29.82,WNW,299,5.0,5.0,74,0.00,,---,0.44,0.00,VWS V14.00,2013-04-13 03:35:00,
2013-04-12 23:40:00,46.5,38.0,29.82,WSW,257,5.0,8.0,72,0.00,,---,0.44,0.00,VWS V14.00,2013-04-13 03:40:00,
2013-04-12 23:45:00,46.4,38.2,29.82,WNW,291,4.0,8.0,73,0.00,,---,0.44,0.00,VWS V14.00,2013-04-13 03:45:00,
2013-04-12 23:50:00,46.4,38.2,29.82,WNW,290,4.0,8.0,73,0.00,,---,0.44,0.00,VWS V14.00,2013-04-13 03:50:00,
2013-04-12 23:55:00,46.3,38.1,29.82,West,262,4.0,8.0,73,0.00,,---,0.44,0.00,VWS V14.00,2013-04-13 03:55:00,